createdAt,value
2022-11-09T00:00:41.466Z,1.90
2022-11-09T00:03:08.895Z,1.83
2022-11-09T00:05:36.322Z,2.03
2022-11-09T00:08:07.436Z,2.30
2022-11-09T00:10:34.859Z,1.97
2022-11-09T00:13:02.283Z,2.47
2022-11-09T00:15:29.694Z,2.30
2022-11-09T00:17:57.112Z,2.67
2022-11-09T00:20:24.566Z,2.67
2022-11-09T00:22:52.062Z,2.87
2022-11-09T00:25:20.806Z,3.00
2022-11-09T00:27:48.230Z,3.07
2022-11-09T00:30:15.723Z,2.90
2022-11-09T00:32:44.570Z,3.60
2022-11-09T00:35:13.672Z,3.37
2022-11-09T00:37:41.129Z,3.80
2022-11-09T00:40:11.829Z,3.17
2022-11-09T00:42:40.614Z,3.80
2022-11-09T00:45:08.758Z,4.10
2022-11-09T00:47:36.394Z,4.50
2022-11-09T00:50:03.924Z,4.57
2022-11-09T00:52:31.343Z,4.10
2022-11-09T00:54:58.867Z,5.27
2022-11-09T00:57:26.281Z,4.47
2022-11-09T00:59:55.081Z,4.30
2022-11-09T01:02:22.544Z,4.00
2022-11-09T01:04:50.142Z,4.40
2022-11-09T01:07:17.616Z,4.57
2022-11-09T01:09:45.082Z,4.33
2022-11-09T01:12:12.519Z,4.67
2022-11-09T01:14:39.970Z,4.70
2022-11-09T01:17:08.766Z,4.93
2022-11-09T01:19:36.199Z,4.60
2022-11-09T01:22:03.714Z,4.07
2022-11-09T01:24:31.156Z,4.50
2022-11-09T01:26:58.739Z,4.30
2022-11-09T01:29:26.210Z,4.17
2022-11-09T01:31:55.379Z,4.77
2022-11-09T01:34:24.261Z,4.50
2022-11-09T01:36:51.842Z,4.13
2022-11-09T01:39:19.676Z,4.80
2022-11-09T01:41:47.233Z,4.57
2022-11-09T01:44:17.111Z,4.53
2022-11-09T01:46:47.907Z,4.57
2022-11-09T01:49:20.170Z,4.57
2022-11-09T01:51:52.048Z,4.83
2022-11-09T01:54:21.644Z,4.17
2022-11-09T01:56:51.283Z,4.10
2022-11-09T01:59:20.954Z,5.10
2022-11-09T02:01:49.676Z,3.90
2022-11-09T02:04:19.866Z,4.27
2022-11-09T02:06:47.732Z,4.20
2022-11-09T02:09:19.184Z,4.23
2022-11-09T02:11:46.643Z,3.90
2022-11-09T02:14:14.288Z,4.27
2022-11-09T02:16:41.913Z,3.87
2022-11-09T02:19:09.864Z,4.13
2022-11-09T02:21:38.935Z,3.70
2022-11-09T02:24:07.047Z,4.20
2022-11-09T02:26:37.097Z,3.70
2022-11-09T02:29:33.274Z,3.63
2022-11-09T02:32:02.476Z,3.47
2022-11-09T02:34:30.881Z,3.57
2022-11-09T02:37:00.219Z,3.67
2022-11-09T02:39:28.715Z,3.00
2022-11-09T02:41:57.751Z,3.07
2022-11-09T02:44:31.112Z,2.80
2022-11-09T02:46:58.581Z,3.83
2022-11-09T02:49:27.852Z,3.10
2022-11-09T02:51:55.283Z,3.20
2022-11-09T02:54:25.619Z,3.00
2022-11-09T02:56:54.571Z,2.90
2022-11-09T02:59:22.959Z,3.30
2022-11-09T03:01:51.052Z,3.20
2022-11-09T03:04:19.072Z,3.33
2022-11-09T03:06:46.776Z,3.33
2022-11-09T03:09:17.123Z,3.00
2022-11-09T03:11:46.038Z,3.17
2022-11-09T03:14:15.583Z,3.10
2022-11-09T03:16:51.002Z,3.40
2022-11-09T03:19:19.281Z,3.20
2022-11-09T03:21:50.980Z,3.23
2022-11-09T03:24:22.632Z,3.13
2022-11-09T03:26:53.705Z,2.90
2022-11-09T03:29:21.612Z,2.60
2022-11-09T03:31:49.888Z,2.70
2022-11-09T03:34:17.359Z,2.90
2022-11-09T03:36:44.803Z,2.70
2022-11-09T03:39:12.942Z,2.70
2022-11-09T03:41:40.388Z,2.40
2022-11-09T03:44:10.805Z,2.63
2022-11-09T03:46:38.272Z,2.43
2022-11-09T03:49:05.769Z,2.60
2022-11-09T03:51:33.435Z,2.70
2022-11-09T03:54:01.035Z,5.97
2022-11-09T03:56:28.463Z,16.33
2022-11-09T03:58:55.936Z,10.57
2022-11-09T04:01:24.754Z,16.87
2022-11-09T04:03:52.267Z,19.77
2022-11-09T04:06:19.680Z,7.30
2022-11-09T04:08:51.387Z,18.70
2022-11-09T04:11:19.963Z,19.43
2022-11-09T04:13:48.253Z,27.67
2022-11-09T04:16:15.685Z,8.03
2022-11-09T04:18:44.515Z,5.70
2022-11-09T04:21:11.937Z,3.17
2022-11-09T04:23:39.389Z,5.30
2022-11-09T04:26:07.046Z,2.33
2022-11-09T04:28:34.493Z,2.80
2022-11-09T04:31:02.471Z,2.20
2022-11-09T04:33:30.037Z,2.50
2022-11-09T04:36:03.516Z,3.07
2022-11-09T04:38:30.964Z,5.90
2022-11-09T04:41:01.107Z,6.90
2022-11-09T04:43:28.651Z,6.97
2022-11-09T04:45:56.170Z,8.10
2022-11-09T04:48:23.700Z,6.87
2022-11-09T04:50:51.143Z,3.93
2022-11-09T04:53:20.249Z,3.00
2022-11-09T04:55:47.968Z,2.43
2022-11-09T04:58:15.508Z,2.33
2022-11-09T05:00:43.007Z,2.30
2022-11-09T05:03:10.460Z,2.50
2022-11-09T05:05:39.512Z,2.17
2022-11-09T05:08:09.613Z,2.30
2022-11-09T05:10:38.398Z,2.23
2022-11-09T05:13:06.800Z,2.67
2022-11-09T05:15:34.592Z,2.30
2022-11-09T05:18:02.793Z,3.10
2022-11-09T05:20:30.529Z,2.63
2022-11-09T05:23:15.760Z,2.33
2022-11-09T05:25:44.610Z,2.43
2022-11-09T05:28:12.251Z,2.33
2022-11-09T05:30:40.092Z,2.73
2022-11-09T05:33:07.518Z,2.50
2022-11-09T05:35:34.947Z,2.53
2022-11-09T05:38:02.440Z,2.57
2022-11-09T05:40:29.894Z,3.00
2022-11-09T05:42:58.670Z,2.80
2022-11-09T05:45:43.447Z,2.53
2022-11-09T05:48:11.933Z,2.80
2022-11-09T05:50:39.785Z,2.50
2022-11-09T05:53:23.587Z,2.37
2022-11-09T05:55:51.244Z,3.47
2022-11-09T05:58:20.013Z,3.27
2022-11-09T06:00:47.520Z,2.60
2022-11-09T06:03:14.983Z,3.00
2022-11-09T06:05:42.411Z,3.07
2022-11-09T06:08:12.816Z,2.67
2022-11-09T06:10:40.357Z,3.20
2022-11-09T06:13:07.850Z,3.00
2022-11-09T06:15:36.609Z,3.47
2022-11-09T06:18:04.194Z,2.97
2022-11-09T06:20:33.087Z,2.70
2022-11-09T06:23:03.495Z,3.20
2022-11-09T06:25:32.424Z,2.70
2022-11-09T06:27:59.913Z,2.80
2022-11-09T06:30:27.334Z,3.23
2022-11-09T06:33:00.033Z,2.77
2022-11-09T06:35:27.546Z,3.17
2022-11-09T06:37:56.257Z,3.07
2022-11-09T06:40:23.725Z,2.93
2022-11-09T06:42:51.228Z,3.30
2022-11-09T06:45:18.800Z,2.80
2022-11-09T06:47:46.420Z,2.90
2022-11-09T06:50:15.287Z,3.13
2022-11-09T06:52:42.700Z,3.40
2022-11-09T06:55:10.637Z,3.13
2022-11-09T06:57:38.103Z,3.40
2022-11-09T07:00:06.029Z,3.87
2022-11-09T07:02:33.590Z,3.53
2022-11-09T07:05:01.228Z,4.13
2022-11-09T07:07:30.096Z,4.50
2022-11-09T07:09:58.198Z,4.30
2022-11-09T07:12:25.769Z,4.77
2022-11-09T07:14:53.188Z,4.00
2022-11-09T07:17:20.620Z,4.77
2022-11-09T07:19:48.084Z,4.70
2022-11-09T07:22:15.568Z,4.20
2022-11-09T07:24:44.333Z,4.57
2022-11-09T07:27:11.960Z,4.90
2022-11-09T07:29:39.386Z,4.37
2022-11-09T07:32:06.824Z,3.97
2022-11-09T07:34:34.257Z,4.07
2022-11-09T07:37:01.724Z,4.43
2022-11-09T07:39:29.156Z,4.73
2022-11-09T07:41:57.998Z,4.60
2022-11-09T07:44:27.640Z,4.83
2022-11-09T07:46:55.075Z,4.43
2022-11-09T07:49:22.491Z,4.80
2022-11-09T07:51:50.099Z,4.43
2022-11-09T07:54:18.528Z,4.37
2022-11-09T07:56:46.172Z,4.43
2022-11-09T07:59:14.916Z,3.83
2022-11-09T08:01:42.400Z,4.33
2022-11-09T08:04:10.311Z,4.90
2022-11-09T08:06:37.807Z,4.27
2022-11-09T08:09:05.377Z,4.60
2022-11-09T08:11:32.893Z,3.90
2022-11-09T08:14:00.396Z,3.67
2022-11-09T08:16:32.237Z,3.97
2022-11-09T08:19:04.168Z,3.90
2022-11-09T08:21:31.622Z,4.00
2022-11-09T08:23:59.101Z,4.00
2022-11-09T08:26:26.532Z,4.20
2022-11-09T08:28:54.001Z,3.83
2022-11-09T08:31:21.513Z,3.97
2022-11-09T08:33:50.359Z,3.80
2022-11-09T08:36:18.585Z,3.90
2022-11-09T08:38:46.298Z,3.73
2022-11-09T08:41:14.389Z,3.80
2022-11-09T08:43:42.194Z,4.03
2022-11-09T08:46:09.776Z,3.73
2022-11-09T08:48:37.331Z,3.90
2022-11-09T08:51:06.207Z,4.00
2022-11-09T08:53:33.638Z,4.10
2022-11-09T08:56:01.080Z,4.00
2022-11-09T08:58:28.565Z,3.90
2022-11-09T09:00:56.027Z,3.67
2022-11-09T09:03:23.701Z,3.47
2022-11-09T09:05:51.418Z,3.40
2022-11-09T09:08:23.212Z,3.20
2022-11-09T09:10:51.109Z,3.40
2022-11-09T09:13:22.445Z,3.57
2022-11-09T09:15:50.080Z,3.07
2022-11-09T09:18:17.655Z,3.03
2022-11-09T09:20:45.263Z,3.10
2022-11-09T09:23:15.375Z,3.40
2022-11-09T09:25:44.493Z,2.90
2022-11-09T09:28:12.062Z,3.03
2022-11-09T09:30:39.517Z,3.20
2022-11-09T09:33:06.989Z,3.00
2022-11-09T09:35:34.501Z,3.03
2022-11-09T09:38:01.949Z,2.90
2022-11-09T09:40:32.300Z,2.63
2022-11-09T09:43:01.174Z,2.53
2022-11-09T09:45:29.780Z,2.63
2022-11-09T09:48:00.967Z,2.50
2022-11-09T09:50:30.240Z,2.33
2022-11-09T09:53:22.676Z,2.60
2022-11-09T09:55:48.881Z,2.30
2022-11-09T09:58:22.377Z,2.27
2022-11-09T10:00:53.094Z,2.20
2022-11-09T10:03:21.187Z,1.90
2022-11-09T10:05:53.488Z,2.37
2022-11-09T10:08:27.201Z,2.30
2022-11-09T10:11:00.188Z,1.80
2022-11-09T10:13:43.443Z,2.00
2022-11-09T10:16:14.733Z,1.70
2022-11-09T10:18:46.282Z,1.80
2022-11-09T10:21:19.249Z,1.73
2022-11-09T10:23:51.237Z,1.80
2022-11-09T10:26:20.045Z,1.60
2022-11-09T10:31:39.072Z,1.67
2022-11-09T10:34:14.741Z,1.63
2022-11-09T10:36:44.718Z,1.40
2022-11-09T10:39:13.628Z,1.60
2022-11-09T10:42:00.580Z,1.53
2022-11-09T10:44:48.202Z,1.90
2022-11-09T10:47:47.405Z,1.60
2022-11-09T10:50:34.797Z,1.80
2022-11-09T10:53:22.036Z,2.00
2022-11-09T10:56:19.950Z,1.90
2022-11-09T10:59:31.334Z,2.13
2022-11-09T11:02:40.476Z,2.20
2022-11-09T11:05:28.299Z,2.27
2022-11-09T11:08:24.995Z,2.07
2022-11-09T11:11:37.901Z,2.27
2022-11-09T11:14:27.375Z,2.20
2022-11-09T11:17:21.906Z,2.40
2022-11-09T11:20:22.732Z,3.10
2022-11-09T11:23:14.124Z,2.90
2022-11-09T11:26:04.434Z,3.37
2022-11-09T11:28:51.711Z,3.30
2022-11-09T11:31:39.509Z,3.00
2022-11-09T11:34:53.516Z,3.90
2022-11-09T11:37:38.020Z,3.37
2022-11-09T11:40:30.537Z,3.57
2022-11-09T11:43:26.657Z,3.83
2022-11-09T11:46:16.482Z,3.77
2022-11-09T11:49:12.313Z,3.90
2022-11-09T11:52:02.899Z,4.30
2022-11-09T11:54:58.897Z,4.03
2022-11-09T11:57:50.587Z,4.53
2022-11-09T12:00:40.469Z,4.70
2022-11-09T12:03:33.664Z,4.70
2022-11-09T12:06:28.725Z,4.57
2022-11-09T12:09:33.407Z,4.23
2022-11-09T12:12:24.400Z,4.73
2022-11-09T12:15:24.799Z,5.13
2022-11-09T12:18:14.736Z,5.33
2022-11-09T12:21:07.309Z,4.60
2022-11-09T12:24:16.914Z,5.43
2022-11-09T12:27:31.072Z,5.43
2022-11-09T12:30:17.315Z,5.33
2022-11-09T12:33:05.531Z,5.10
2022-11-09T12:35:54.208Z,5.40
2022-11-09T12:38:52.137Z,5.73
2022-11-09T12:41:38.719Z,4.93
2022-11-09T12:44:26.173Z,5.30
2022-11-09T12:47:15.362Z,5.63
2022-11-09T12:50:03.124Z,5.47
2022-11-09T12:52:52.041Z,5.07
2022-11-09T12:55:42.782Z,4.80
2022-11-09T12:58:29.419Z,5.37
2022-11-09T13:01:35.684Z,5.07
2022-11-09T13:04:23.168Z,4.67
2022-11-09T13:07:31.301Z,4.67
2022-11-09T13:10:29.008Z,4.33
2022-11-09T13:13:23.145Z,4.50
2022-11-09T13:16:13.962Z,4.20
2022-11-09T13:19:00.076Z,4.27
2022-11-09T13:21:45.968Z,4.50
2022-11-09T13:24:55.833Z,4.50
2022-11-09T13:27:44.241Z,4.97
2022-11-09T13:30:40.772Z,4.90
2022-11-09T13:33:29.013Z,5.63
2022-11-09T13:36:19.142Z,5.43
2022-11-09T13:39:24.032Z,5.27
2022-11-09T13:42:25.017Z,4.90
2022-11-09T13:45:29.761Z,5.20
2022-11-09T13:48:27.329Z,5.57
2022-11-09T13:51:14.758Z,5.80
2022-11-09T13:54:02.327Z,5.50
2022-11-09T13:56:48.528Z,5.80
2022-11-09T13:59:35.964Z,6.20
2022-11-09T14:02:24.350Z,6.60
2022-11-09T14:05:23.574Z,5.60
2022-11-09T14:08:15.644Z,6.03
2022-11-09T14:11:11.849Z,6.10
2022-11-09T14:14:04.619Z,5.43
2022-11-09T14:16:54.668Z,6.30
2022-11-09T14:19:48.304Z,4.90
2022-11-09T14:22:35.501Z,5.53
2022-11-09T14:25:23.058Z,4.77
2022-11-09T14:28:20.516Z,5.23
2022-11-09T14:31:07.036Z,5.47
2022-11-09T14:33:59.449Z,5.20
2022-11-09T14:36:47.188Z,5.20
2022-11-09T14:39:34.667Z,5.03
2022-11-09T14:42:22.235Z,4.80
2022-11-09T14:45:14.511Z,5.00
2022-11-09T14:48:01.016Z,5.27
2022-11-09T14:50:47.431Z,5.13
2022-11-09T14:53:36.817Z,5.57
2022-11-09T14:56:24.372Z,5.87
2022-11-09T14:59:13.879Z,5.20
2022-11-09T15:02:01.906Z,5.40
2022-11-09T15:04:55.187Z,6.53
2022-11-09T15:07:41.453Z,5.67
2022-11-09T15:10:29.913Z,5.90
2022-11-09T15:13:16.707Z,6.00
2022-11-09T15:16:03.269Z,7.23
2022-11-09T15:18:49.657Z,6.20
2022-11-09T15:21:37.813Z,6.10
2022-11-09T15:24:25.103Z,5.90
2022-11-09T15:27:26.127Z,6.60
2022-11-09T15:30:26.885Z,6.17
2022-11-09T15:33:25.341Z,6.27
2022-11-09T15:36:21.224Z,6.63
2022-11-09T15:39:09.331Z,6.00
2022-11-09T15:41:57.619Z,6.53
2022-11-09T15:44:43.927Z,6.03
2022-11-09T15:47:33.116Z,6.23
2022-11-09T15:50:21.972Z,6.70
2022-11-09T15:53:08.355Z,6.97
2022-11-09T15:55:54.318Z,6.77
2022-11-09T15:58:40.290Z,6.80
2022-11-09T16:01:26.336Z,6.13
2022-11-09T16:04:12.342Z,6.33
2022-11-09T16:07:00.324Z,6.10
2022-11-09T16:09:46.169Z,8.30
2022-11-09T16:12:32.205Z,9.10
2022-11-09T16:15:18.367Z,7.30
2022-11-09T16:18:04.912Z,7.40
2022-11-09T16:20:51.109Z,6.63
2022-11-09T16:23:38.640Z,6.93
2022-11-09T16:26:25.133Z,7.00
2022-11-09T16:29:11.422Z,6.40
2022-11-09T16:31:57.829Z,6.17
2022-11-09T16:34:44.185Z,7.13
2022-11-09T16:37:35.895Z,6.80
2022-11-09T16:40:23.236Z,7.57
2022-11-09T16:43:09.359Z,8.00
2022-11-09T16:45:55.528Z,7.10
2022-11-09T16:48:41.742Z,7.40
2022-11-09T16:51:27.811Z,6.63
2022-11-09T16:54:14.024Z,7.13
2022-11-09T16:57:01.422Z,7.57
2022-11-09T16:59:47.502Z,7.57
2022-11-09T17:02:33.432Z,8.30
2022-11-09T17:05:19.301Z,8.53
2022-11-09T17:08:05.624Z,7.57
2022-11-09T17:10:51.569Z,7.20
2022-11-09T17:13:38.993Z,6.17
2022-11-09T17:16:25.311Z,6.80
2022-11-09T17:19:13.606Z,6.90
2022-11-09T17:21:59.593Z,6.60
2022-11-09T17:24:45.664Z,5.30
2022-11-09T17:27:31.665Z,5.93
2022-11-09T17:30:19.026Z,13.13
2022-11-09T17:33:05.332Z,21.23
2022-11-09T17:35:58.665Z,14.60
2022-11-09T17:38:44.720Z,12.27
2022-11-09T17:41:30.496Z,39.80
2022-11-09T17:44:16.484Z,38.57
2022-11-09T17:47:04.617Z,11.27
2022-11-09T17:49:50.677Z,7.23
2022-11-09T17:52:36.716Z,5.80
2022-11-09T17:55:23.252Z,5.50
2022-11-09T17:58:09.391Z,5.60
2022-11-09T18:00:56.029Z,4.60
2022-11-09T18:03:43.696Z,5.03
2022-11-09T18:06:30.110Z,7.53
2022-11-09T18:09:40.343Z,6.63
2022-11-09T18:12:23.315Z,7.67
2022-11-09T18:15:10.681Z,6.03
2022-11-09T18:17:56.500Z,7.53
2022-11-09T18:20:43.677Z,8.43
2022-11-09T18:23:29.575Z,7.90
2022-11-09T18:26:15.921Z,8.77
2022-11-09T18:29:02.090Z,15.97
2022-11-09T18:31:47.872Z,10.00
2022-11-09T18:34:34.011Z,7.40
2022-11-09T18:37:21.381Z,7.47
2022-11-09T18:40:08.325Z,6.43
2022-11-09T18:42:54.534Z,4.73
2022-11-09T18:45:40.365Z,4.50
2022-11-09T18:48:26.626Z,4.40
2022-11-09T18:51:12.968Z,4.33
2022-11-09T18:54:00.417Z,4.77
2022-11-09T18:56:47.063Z,8.27
2022-11-09T18:59:34.020Z,6.10
2022-11-09T19:02:19.870Z,3.63
2022-11-09T19:05:06.759Z,3.70
2022-11-09T19:07:52.726Z,3.97
2022-11-09T19:10:40.161Z,3.87
2022-11-09T19:13:26.307Z,4.27
2022-11-09T19:16:13.269Z,4.43
2022-11-09T19:18:59.487Z,3.83
2022-11-09T19:21:47.362Z,4.07
2022-11-09T19:24:33.533Z,3.23
2022-11-09T19:27:20.972Z,4.57
2022-11-09T19:30:09.815Z,3.90
2022-11-09T19:32:57.541Z,4.23
2022-11-09T19:35:45.054Z,5.20
2022-11-09T19:38:35.281Z,4.57
2022-11-09T19:41:21.566Z,4.73
2022-11-09T19:44:09.071Z,4.53
2022-11-09T19:46:54.949Z,4.03
2022-11-09T19:49:40.937Z,3.67
2022-11-09T19:52:26.949Z,3.87
2022-11-09T19:55:12.898Z,3.80
2022-11-09T19:57:58.714Z,4.07
2022-11-09T20:00:46.114Z,4.30
2022-11-09T20:03:31.978Z,3.80
2022-11-09T20:06:18.527Z,3.50
2022-11-09T20:09:05.106Z,3.63
2022-11-09T20:12:08.596Z,4.53
2022-11-09T20:14:54.799Z,4.27
2022-11-09T20:17:42.172Z,3.67
2022-11-09T20:20:28.133Z,5.33
2022-11-09T20:23:19.004Z,12.20
2022-11-09T20:26:08.358Z,7.37
2022-11-09T20:28:54.722Z,6.07
2022-11-09T20:31:41.035Z,7.57
2022-11-09T20:34:29.611Z,6.37
2022-11-09T20:37:16.422Z,4.03
2022-11-09T20:40:03.413Z,4.03
2022-11-09T20:42:49.641Z,4.23
2022-11-09T20:45:36.614Z,3.60
2022-11-09T20:48:46.955Z,3.67
2022-11-09T20:51:30.386Z,3.83
2022-11-09T20:54:16.945Z,4.07
2022-11-09T20:57:03.021Z,3.40
2022-11-09T20:59:49.297Z,3.23
2022-11-09T21:02:35.292Z,3.77
2022-11-09T21:05:21.287Z,3.30
2022-11-09T21:08:08.377Z,4.10
2022-11-09T21:10:55.204Z,3.60
2022-11-09T21:13:43.857Z,3.67
2022-11-09T21:16:30.226Z,3.53
2022-11-09T21:19:16.324Z,4.10
2022-11-09T21:22:02.695Z,3.90
2022-11-09T21:25:07.348Z,3.80
2022-11-09T21:28:11.035Z,3.43
2022-11-09T21:31:00.732Z,5.93
2022-11-09T21:33:46.840Z,8.27
2022-11-09T21:36:32.709Z,10.20
2022-11-09T21:39:18.783Z,15.63
2022-11-09T21:42:07.380Z,26.13
2022-11-09T21:44:53.463Z,29.77
2022-11-09T21:47:39.581Z,23.50
2022-11-09T21:50:25.407Z,18.90
2022-11-09T21:53:11.265Z,14.07
2022-11-09T21:55:59.801Z,6.63
2022-11-09T21:58:48.160Z,4.10
2022-11-09T22:01:34.353Z,3.03
2022-11-09T22:04:20.339Z,2.40
2022-11-09T22:07:06.753Z,2.47
2022-11-09T22:13:16.956Z,1.93
2022-11-09T22:16:09.107Z,1.77
2022-11-09T22:19:12.845Z,1.40
2022-11-09T22:21:59.008Z,1.23
2022-11-09T22:24:45.189Z,1.40
2022-11-09T22:27:31.389Z,1.10
2022-11-09T22:30:17.586Z,1.10
2022-11-09T22:33:04.986Z,1.10
2022-11-09T22:35:54.264Z,2.43
2022-11-09T22:38:40.373Z,2.80
2022-11-09T22:41:26.310Z,2.43
2022-11-09T22:44:13.013Z,6.30
2022-11-09T22:46:58.911Z,7.07
2022-11-09T22:49:46.050Z,13.20
2022-11-09T22:52:31.957Z,23.23
2022-11-09T22:55:18.480Z,20.43
2022-11-09T22:58:04.362Z,5.60
2022-11-09T23:00:50.777Z,3.70
2022-11-09T23:03:36.982Z,4.40
2022-11-09T23:06:24.617Z,2.93
2022-11-09T23:09:10.855Z,3.17
2022-11-09T23:11:56.601Z,3.60
2022-11-09T23:14:59.911Z,2.70
2022-11-09T23:18:03.641Z,2.10
2022-11-09T23:20:49.869Z,1.87
2022-11-09T23:23:37.344Z,1.80
2022-11-09T23:26:24.010Z,1.80
2022-11-09T23:29:09.921Z,1.70
2022-11-09T23:31:57.119Z,1.50
2022-11-09T23:34:43.089Z,1.80
2022-11-09T23:37:29.040Z,1.50
2022-11-09T23:40:16.393Z,1.23
2022-11-09T23:43:02.859Z,1.50
2022-11-09T23:45:48.853Z,1.63
2022-11-09T23:48:35.358Z,1.27
2022-11-09T23:51:23.223Z,1.17
2022-11-09T23:54:09.244Z,1.30
2022-11-09T23:56:56.433Z,1.37
2022-11-09T23:59:42.254Z,1.70
